createdAt,value
2022-11-02T00:02:18.119Z,7.03
2022-11-02T00:04:45.058Z,7.10
2022-11-02T00:07:12.069Z,6.20
2022-11-02T00:09:38.945Z,7.67
2022-11-02T00:12:06.614Z,7.03
2022-11-02T00:14:33.498Z,7.23
2022-11-02T00:17:00.398Z,7.87
2022-11-02T00:19:27.260Z,6.40
2022-11-02T00:21:55.635Z,6.73
2022-11-02T00:24:22.589Z,7.50
2022-11-02T00:26:49.538Z,7.20
2022-11-02T00:29:16.563Z,7.77
2022-11-02T00:31:43.556Z,7.57
2022-11-02T00:34:10.482Z,7.40
2022-11-02T00:36:37.374Z,7.80
2022-11-02T00:39:04.373Z,7.57
2022-11-02T00:41:31.283Z,7.60
2022-11-02T00:43:59.030Z,7.33
2022-11-02T00:46:25.963Z,7.80
2022-11-02T00:48:52.851Z,7.70
2022-11-02T00:51:19.974Z,8.23
2022-11-02T00:53:46.877Z,7.63
2022-11-02T00:56:13.711Z,7.90
2022-11-02T00:58:40.619Z,7.50
2022-11-02T01:01:08.814Z,8.13
2022-11-02T01:03:35.801Z,7.87
2022-11-02T01:06:14.703Z,8.00
2022-11-02T01:08:42.189Z,9.00
2022-11-02T01:11:15.234Z,8.37
2022-11-02T01:13:42.577Z,8.17
2022-11-02T01:16:10.113Z,8.07
2022-11-02T01:18:37.598Z,8.10
2022-11-02T01:21:05.212Z,8.63
2022-11-02T01:23:37.435Z,7.70
2022-11-02T01:26:09.517Z,9.20
2022-11-02T01:28:37.182Z,8.17
2022-11-02T01:31:04.417Z,8.20
2022-11-02T01:33:31.340Z,7.37
2022-11-02T01:35:58.559Z,7.60
2022-11-02T01:38:25.660Z,8.20
2022-11-02T01:40:52.595Z,7.77
2022-11-02T01:43:27.455Z,9.30
2022-11-02T01:46:24.553Z,9.30
2022-11-02T01:49:04.257Z,9.33
2022-11-02T01:51:48.512Z,9.10
2022-11-02T01:54:21.011Z,8.73
2022-11-02T01:56:53.994Z,9.20
2022-11-02T01:59:28.929Z,9.40
2022-11-02T02:01:55.974Z,9.73
2022-11-02T02:04:24.014Z,10.17
2022-11-02T02:06:52.009Z,9.73
2022-11-02T02:09:20.766Z,10.40
2022-11-02T02:11:47.665Z,9.30
2022-11-02T02:14:18.405Z,9.70
2022-11-02T02:17:40.698Z,9.70
2022-11-02T02:20:34.829Z,9.77
2022-11-02T02:23:41.542Z,9.37
2022-11-02T02:26:43.876Z,9.43
2022-11-02T02:29:25.609Z,9.80
2022-11-02T02:32:13.998Z,9.80
2022-11-02T02:34:53.869Z,9.60
2022-11-02T02:37:33.700Z,10.60
2022-11-02T02:40:08.931Z,9.60
2022-11-02T02:42:53.525Z,8.90
2022-11-02T02:45:27.818Z,7.97
2022-11-02T02:48:04.415Z,7.73
2022-11-02T02:50:41.040Z,8.43
2022-11-02T02:53:08.959Z,8.00
2022-11-02T02:55:44.253Z,7.63
2022-11-02T02:58:18.726Z,7.80
2022-11-02T03:00:46.270Z,8.10
2022-11-02T03:03:24.771Z,7.20
2022-11-02T03:06:30.772Z,8.37
2022-11-02T03:09:41.042Z,9.13
2022-11-02T03:12:21.740Z,8.40
2022-11-02T03:15:06.224Z,8.80
2022-11-02T03:17:41.822Z,8.60
2022-11-02T03:20:24.892Z,8.70
2022-11-02T03:23:13.492Z,7.80
2022-11-02T03:26:01.253Z,7.97
2022-11-02T03:28:40.804Z,8.30
2022-11-02T03:31:31.601Z,7.57
2022-11-02T03:34:17.494Z,8.73
2022-11-02T03:37:01.444Z,8.20
2022-11-02T03:39:38.199Z,8.17
2022-11-02T03:42:07.241Z,9.33
2022-11-02T03:44:38.956Z,8.30
2022-11-02T03:47:11.871Z,8.70
2022-11-02T03:49:42.107Z,8.50
2022-11-02T03:52:16.193Z,8.40
2022-11-02T03:55:13.512Z,8.67
2022-11-02T03:57:51.481Z,8.77
2022-11-02T04:00:22.357Z,8.60
2022-11-02T04:02:53.582Z,8.43
2022-11-02T04:05:21.146Z,8.67
2022-11-02T04:08:10.872Z,9.17
2022-11-02T04:10:57.738Z,7.53
2022-11-02T04:13:42.925Z,8.37
2022-11-02T04:16:09.870Z,8.00
2022-11-02T04:18:54.928Z,9.73
2022-11-02T04:21:21.863Z,8.70
2022-11-02T04:24:07.131Z,8.40
2022-11-02T04:26:34.040Z,8.97
2022-11-02T04:29:00.983Z,9.13
2022-11-02T04:31:27.840Z,8.43
2022-11-02T04:33:54.693Z,9.67
2022-11-02T04:36:21.635Z,8.93
2022-11-02T04:38:48.534Z,7.93
2022-11-02T04:41:38.813Z,9.87
2022-11-02T04:44:06.867Z,9.30
2022-11-02T04:46:36.769Z,10.70
2022-11-02T04:49:04.851Z,14.17
2022-11-02T04:51:32.029Z,15.40
2022-11-02T04:53:59.458Z,11.33
2022-11-02T04:56:28.131Z,8.87
2022-11-02T04:58:58.191Z,8.93
2022-11-02T05:01:28.365Z,8.87
2022-11-02T05:03:56.727Z,7.73
2022-11-02T05:06:25.020Z,8.17
2022-11-02T05:08:52.107Z,8.70
2022-11-02T05:11:19.132Z,8.87
2022-11-02T05:13:46.154Z,8.10
2022-11-02T05:16:16.096Z,8.30
2022-11-02T05:18:43.885Z,8.40
2022-11-02T05:21:12.753Z,7.50
2022-11-02T05:23:39.947Z,7.10
2022-11-02T05:26:12.067Z,7.77
2022-11-02T05:28:39.228Z,7.53
2022-11-02T05:31:06.572Z,6.90
2022-11-02T05:33:35.153Z,7.97
2022-11-02T05:36:02.024Z,8.80
2022-11-02T05:38:30.069Z,8.10
2022-11-02T05:41:00.557Z,6.90
2022-11-02T05:43:27.940Z,6.87
2022-11-02T05:46:00.803Z,7.03
2022-11-02T05:48:31.973Z,8.30
2022-11-02T05:51:01.695Z,7.83
2022-11-02T05:53:34.016Z,8.80
2022-11-02T05:56:03.302Z,9.03
2022-11-02T05:58:32.274Z,7.80
2022-11-02T06:01:00.670Z,7.60
2022-11-02T06:03:28.507Z,7.50
2022-11-02T06:06:05.758Z,8.00
2022-11-02T06:08:35.465Z,7.70
2022-11-02T06:11:12.040Z,7.80
2022-11-02T06:13:40.164Z,8.00
2022-11-02T06:16:09.559Z,8.70
2022-11-02T06:18:37.872Z,8.97
2022-11-02T06:21:05.077Z,7.80
2022-11-02T06:23:32.129Z,7.93
2022-11-02T06:26:00.478Z,7.30
2022-11-02T06:28:28.596Z,7.10
2022-11-02T06:30:55.742Z,7.43
2022-11-02T06:33:23.138Z,8.57
2022-11-02T06:35:52.728Z,7.70
2022-11-02T06:38:20.127Z,8.70
2022-11-02T06:40:58.762Z,8.53
2022-11-02T06:43:26.491Z,9.20
2022-11-02T06:45:58.098Z,8.13
2022-11-02T06:48:33.147Z,8.33
2022-11-02T06:51:01.746Z,7.77
2022-11-02T06:53:28.743Z,8.53
2022-11-02T06:55:57.992Z,8.70
2022-11-02T06:58:26.130Z,8.17
2022-11-02T07:01:05.621Z,8.30
2022-11-02T07:03:33.030Z,7.73
2022-11-02T07:06:00.187Z,8.50
2022-11-02T07:08:28.237Z,7.60
2022-11-02T07:10:55.874Z,8.73
2022-11-02T07:13:22.917Z,7.63
2022-11-02T07:15:53.359Z,7.43
2022-11-02T07:18:20.700Z,8.20
2022-11-02T07:20:47.666Z,8.93
2022-11-02T07:23:14.593Z,9.50
2022-11-02T07:25:41.604Z,12.80
2022-11-02T07:28:08.613Z,12.77
2022-11-02T07:30:35.839Z,9.57
2022-11-02T07:33:03.220Z,8.30
2022-11-02T07:35:30.640Z,8.50
2022-11-02T07:37:59.292Z,8.30
2022-11-02T07:40:27.839Z,11.67
2022-11-02T07:42:55.880Z,9.97
2022-11-02T07:45:23.841Z,9.20
2022-11-02T07:47:51.544Z,8.90
2022-11-02T07:50:22.003Z,11.30
2022-11-02T07:52:54.781Z,11.47
2022-11-02T07:55:24.990Z,9.53
2022-11-02T07:57:59.857Z,9.30
2022-11-02T08:00:33.011Z,9.83
2022-11-02T08:03:02.371Z,9.70
2022-11-02T08:05:31.502Z,7.90
2022-11-02T08:08:00.201Z,9.87
2022-11-02T08:10:29.026Z,9.33
2022-11-02T08:12:56.458Z,9.80
2022-11-02T08:15:24.249Z,11.90
2022-11-02T08:18:02.120Z,9.63
2022-11-02T08:20:30.775Z,10.40
2022-11-02T08:22:58.030Z,9.40
2022-11-02T08:25:25.526Z,9.50
2022-11-02T08:27:52.649Z,12.80
2022-11-02T08:30:19.613Z,10.33
2022-11-02T08:32:46.579Z,11.93
2022-11-02T08:35:13.675Z,13.60
2022-11-02T08:37:40.589Z,18.73
2022-11-02T08:40:08.483Z,13.93
2022-11-02T08:42:38.915Z,11.07
2022-11-02T08:45:07.603Z,12.00
2022-11-02T08:47:34.485Z,14.70
2022-11-02T08:50:01.451Z,13.03
2022-11-02T08:52:28.300Z,11.00
2022-11-02T08:54:56.320Z,10.27
2022-11-02T08:57:23.166Z,10.50
2022-11-02T08:59:50.021Z,9.93
2022-11-02T09:02:17.434Z,10.57
2022-11-02T09:04:44.631Z,9.93
2022-11-02T09:07:11.461Z,10.37
2022-11-02T09:09:38.361Z,9.37
2022-11-02T09:12:06.080Z,9.13
2022-11-02T09:14:32.996Z,9.67
2022-11-02T09:16:59.930Z,9.63
2022-11-02T09:19:26.834Z,9.47
2022-11-02T09:21:53.756Z,9.60
2022-11-02T09:24:20.668Z,9.00
2022-11-02T09:26:49.440Z,9.77
2022-11-02T09:29:16.329Z,9.93
2022-11-02T09:31:43.343Z,10.13
2022-11-02T09:34:10.585Z,9.07
2022-11-02T09:36:37.497Z,10.87
2022-11-02T09:39:04.510Z,10.23
2022-11-02T09:41:42.476Z,12.27
2022-11-02T09:44:29.061Z,15.60
2022-11-02T09:47:39.703Z,24.13
2022-11-02T09:49:45.369Z,14.30
2022-11-02T09:52:25.635Z,15.13
2022-11-02T09:54:55.837Z,13.97
2022-11-02T09:57:33.467Z,13.10
2022-11-02T10:00:00.484Z,14.20
2022-11-02T10:02:54.194Z,13.23
2022-11-02T10:05:35.092Z,14.57
2022-11-02T10:08:10.574Z,13.60
2022-11-02T10:10:56.907Z,13.70
2022-11-02T10:13:48.230Z,15.90
2022-11-02T10:16:46.101Z,17.03
2022-11-02T10:19:17.547Z,13.80
2022-11-02T10:21:48.732Z,13.40
2022-11-02T10:24:31.755Z,13.80
2022-11-02T10:27:10.253Z,13.00
2022-11-02T10:29:54.981Z,14.57
2022-11-02T10:32:22.141Z,14.97
2022-11-02T10:34:58.611Z,14.33
2022-11-02T10:38:33.290Z,13.37
2022-11-02T10:41:26.855Z,12.17
2022-11-02T10:44:27.964Z,10.40
2022-11-02T10:47:20.595Z,3.53
2022-11-02T10:50:36.907Z,2.73
2022-11-02T10:53:35.417Z,2.17
2022-11-02T10:56:02.101Z,1.70
2022-11-02T10:58:32.727Z,1.70
2022-11-02T11:01:08.848Z,1.50
2022-11-02T11:04:07.378Z,1.33
2022-11-02T11:06:42.872Z,1.57
2022-11-02T11:09:20.453Z,1.60
2022-11-02T11:11:56.970Z,1.30
2022-11-02T11:20:34.705Z,1.60
2022-11-02T11:23:15.520Z,2.17
2022-11-02T11:25:43.061Z,1.70
2022-11-02T11:28:42.383Z,1.80
2022-11-02T11:31:14.393Z,1.37
2022-11-02T11:34:19.442Z,1.30
2022-11-02T11:36:46.393Z,1.90
2022-11-02T11:39:29.486Z,1.23
2022-11-02T11:41:57.668Z,1.33
2022-11-02T11:44:25.198Z,1.47
2022-11-02T11:46:57.455Z,1.53
2022-11-02T11:50:07.752Z,1.50
2022-11-02T11:52:32.661Z,1.30
2022-11-02T11:55:23.093Z,1.50
2022-11-02T11:58:21.281Z,1.53
2022-11-02T12:01:12.295Z,2.30
2022-11-02T12:03:54.548Z,3.13
2022-11-02T12:06:54.095Z,1.57
2022-11-02T12:09:30.142Z,1.50
2022-11-02T12:12:35.918Z,1.23
2022-11-02T12:15:26.858Z,1.70
2022-11-02T12:18:05.784Z,2.10
2022-11-02T12:20:59.290Z,1.50
2022-11-02T12:24:00.330Z,1.50
2022-11-02T12:26:31.813Z,1.60
2022-11-02T12:29:22.567Z,1.33
2022-11-02T12:32:01.061Z,1.43
2022-11-02T12:35:27.336Z,1.37
2022-11-02T12:38:07.547Z,1.60
2022-11-02T12:41:00.323Z,1.73
2022-11-02T12:43:43.208Z,1.87
2022-11-02T12:46:44.629Z,1.80
2022-11-02T12:49:21.936Z,1.80
2022-11-02T12:52:26.345Z,1.80
2022-11-02T12:55:00.416Z,2.03
2022-11-02T12:57:33.315Z,1.93
2022-11-02T13:00:05.657Z,1.73
2022-11-02T13:03:03.282Z,2.07
2022-11-02T13:05:38.154Z,1.77
2022-11-02T13:08:21.430Z,1.90
2022-11-02T13:11:00.309Z,2.23
2022-11-02T13:13:44.294Z,1.60
2022-11-02T13:16:15.220Z,1.90
2022-11-02T13:18:50.564Z,2.27
2022-11-02T13:21:50.264Z,2.30
2022-11-02T13:24:25.186Z,2.20
2022-11-02T13:27:02.177Z,2.10
2022-11-02T13:29:47.997Z,2.33
2022-11-02T13:32:41.836Z,2.00
2022-11-02T13:35:29.978Z,2.10
2022-11-02T13:38:06.920Z,2.83
2022-11-02T13:40:43.547Z,2.40
2022-11-02T13:43:25.438Z,2.27
2022-11-02T13:46:19.649Z,2.07
2022-11-02T13:49:02.510Z,1.97
2022-11-02T13:52:02.642Z,2.00
2022-11-02T13:54:45.804Z,1.97
2022-11-02T13:57:41.462Z,2.10
2022-11-02T14:00:36.951Z,2.07
2022-11-02T14:03:17.760Z,2.27
2022-11-02T14:06:01.104Z,2.27
2022-11-02T14:08:39.049Z,2.10
2022-11-02T14:11:15.197Z,1.67
2022-11-02T14:13:54.421Z,2.63
2022-11-02T14:16:50.010Z,2.00
2022-11-02T14:19:32.233Z,2.13
2022-11-02T14:21:58.992Z,1.80
2022-11-02T14:24:34.993Z,2.00
2022-11-02T14:27:14.741Z,2.10
2022-11-02T14:29:47.192Z,2.27
2022-11-02T14:32:17.040Z,1.93
2022-11-02T14:35:10.325Z,2.40
2022-11-02T14:38:10.408Z,2.20
2022-11-02T14:41:18.485Z,2.53
2022-11-02T14:44:36.434Z,2.30
2022-11-02T14:47:18.532Z,2.13
2022-11-02T14:49:57.630Z,2.33
2022-11-02T14:52:37.789Z,2.83
2022-11-02T14:55:19.849Z,2.23
2022-11-02T14:58:10.540Z,2.47
2022-11-02T15:00:57.278Z,2.60
2022-11-02T15:03:25.537Z,4.17
2022-11-02T15:06:19.071Z,3.50
2022-11-02T15:09:00.150Z,2.90
2022-11-02T15:11:42.189Z,2.80
2022-11-02T15:14:38.012Z,2.90
2022-11-02T15:17:16.689Z,3.13
2022-11-02T15:19:47.047Z,2.93
2022-11-02T15:22:29.428Z,3.00
2022-11-02T15:25:03.717Z,2.83
2022-11-02T15:27:31.189Z,3.27
2022-11-02T15:29:58.994Z,2.70
2022-11-02T15:32:29.073Z,2.90
2022-11-02T15:34:57.324Z,2.90
2022-11-02T15:37:37.374Z,3.20
2022-11-02T15:40:30.293Z,2.43
2022-11-02T15:43:13.350Z,2.90
2022-11-02T15:46:02.278Z,2.83
2022-11-02T15:48:57.014Z,3.03
2022-11-02T15:51:57.447Z,3.90
2022-11-02T15:55:09.349Z,3.57
2022-11-02T15:57:45.070Z,6.17
2022-11-02T16:00:19.995Z,8.17
2022-11-02T16:02:50.201Z,8.13
2022-11-02T16:05:24.521Z,8.93
2022-11-02T16:08:10.358Z,9.30
2022-11-02T16:10:42.116Z,11.13
2022-11-02T16:13:22.049Z,14.47
2022-11-02T16:15:50.183Z,14.30
2022-11-02T16:18:38.232Z,13.80
2022-11-02T16:21:09.566Z,14.80
2022-11-02T16:23:47.670Z,15.60
2022-11-02T16:26:22.336Z,14.37
2022-11-02T16:28:52.562Z,15.30
2022-11-02T16:31:33.516Z,15.53
2022-11-02T16:34:42.084Z,13.80
2022-11-02T16:37:17.174Z,10.87
2022-11-02T16:39:47.240Z,8.97
2022-11-02T16:42:18.592Z,9.10
2022-11-02T16:44:57.816Z,9.50
2022-11-02T16:47:45.223Z,9.00
2022-11-02T16:50:25.467Z,10.50
2022-11-02T16:53:01.268Z,12.20
2022-11-02T16:55:46.495Z,11.70
2022-11-02T16:58:23.983Z,13.73
2022-11-02T17:01:03.343Z,14.60
2022-11-02T17:03:33.048Z,12.90
2022-11-02T17:06:04.511Z,12.47
2022-11-02T17:08:35.842Z,12.00
2022-11-02T17:11:05.815Z,11.60
2022-11-02T17:13:37.997Z,12.40
2022-11-02T17:16:09.622Z,12.50
2022-11-02T17:18:37.335Z,13.90
2022-11-02T17:21:15.805Z,13.83
2022-11-02T17:23:47.867Z,14.30
2022-11-02T17:26:26.577Z,15.60
2022-11-02T17:29:02.873Z,15.93
2022-11-02T17:31:36.705Z,16.40
2022-11-02T17:34:31.613Z,14.70
2022-11-02T17:36:58.718Z,14.23
2022-11-02T17:39:26.427Z,13.60
2022-11-02T17:42:14.847Z,15.43
2022-11-02T17:44:42.257Z,15.53
2022-11-02T17:47:14.768Z,14.40
2022-11-02T17:49:41.750Z,15.10
2022-11-02T17:52:13.784Z,14.50
2022-11-02T17:54:40.697Z,13.30
2022-11-02T17:57:15.413Z,13.00
2022-11-02T17:59:42.422Z,14.47
2022-11-02T18:02:14.071Z,12.17
2022-11-02T18:04:41.164Z,12.07
2022-11-02T18:07:08.092Z,13.90
2022-11-02T18:09:35.068Z,12.33
2022-11-02T18:12:01.989Z,12.17
2022-11-02T18:14:28.887Z,8.43
2022-11-02T18:16:58.410Z,10.70
2022-11-02T18:19:25.304Z,9.50
2022-11-02T18:21:52.234Z,9.90
2022-11-02T18:24:19.162Z,9.70
2022-11-02T18:26:47.196Z,10.30
2022-11-02T18:29:14.170Z,8.47
2022-11-02T18:31:41.122Z,8.27
2022-11-02T18:34:08.119Z,7.60
2022-11-02T18:36:38.733Z,7.53
2022-11-02T18:39:06.464Z,8.13
2022-11-02T18:41:36.989Z,7.60
2022-11-02T18:44:13.487Z,6.70
2022-11-02T18:46:42.220Z,6.33
2022-11-02T18:49:11.003Z,4.30
2022-11-02T18:51:38.050Z,4.40
2022-11-02T18:54:06.284Z,4.20
2022-11-02T18:56:33.709Z,4.30
2022-11-02T18:59:00.642Z,4.50
2022-11-02T19:01:28.175Z,4.40
2022-11-02T19:04:00.032Z,5.10
2022-11-02T19:06:48.337Z,4.60
2022-11-02T19:09:20.376Z,5.33
2022-11-02T19:12:10.036Z,8.70
2022-11-02T19:14:43.549Z,10.10
2022-11-02T19:17:12.774Z,6.30
2022-11-02T19:19:40.974Z,6.07
2022-11-02T19:22:07.971Z,5.70
2022-11-02T19:24:34.933Z,5.33
2022-11-02T19:27:02.006Z,5.93
2022-11-02T19:29:28.902Z,6.80
2022-11-02T19:31:55.894Z,10.00
2022-11-02T19:34:23.839Z,12.80
2022-11-02T19:36:50.855Z,9.60
2022-11-02T19:39:18.240Z,5.50
2022-11-02T19:41:48.706Z,5.60
2022-11-02T19:44:15.663Z,6.30
2022-11-02T19:49:10.343Z,5.67
2022-11-02T19:51:37.336Z,5.90
2022-11-02T19:54:04.729Z,6.60
2022-11-02T19:56:34.451Z,6.30
2022-11-02T19:59:02.250Z,7.57
2022-11-02T20:01:35.589Z,5.90
2022-11-02T20:04:05.997Z,7.10
2022-11-02T20:06:37.916Z,8.53
2022-11-02T20:09:08.520Z,8.97
2022-11-02T20:11:36.214Z,10.10
2022-11-02T20:14:05.334Z,11.00
2022-11-02T20:16:32.158Z,10.63
2022-11-02T20:18:59.414Z,10.20
2022-11-02T20:21:34.501Z,10.53
2022-11-02T20:24:03.580Z,11.33
2022-11-02T20:26:34.557Z,8.83
2022-11-02T20:29:03.857Z,10.90
2022-11-02T20:31:34.080Z,10.50
2022-11-02T20:34:02.345Z,9.90
2022-11-02T20:36:30.220Z,9.30
2022-11-02T20:38:57.848Z,9.43
2022-11-02T20:41:26.516Z,9.20
2022-11-02T20:43:57.923Z,10.00
2022-11-02T20:46:47.399Z,9.17
2022-11-02T20:49:22.275Z,8.87
2022-11-02T20:51:56.699Z,9.87
2022-11-02T20:54:23.972Z,8.67
2022-11-02T20:56:51.864Z,9.07
2022-11-02T20:59:18.911Z,8.47
2022-11-02T21:01:49.102Z,8.00
2022-11-02T21:04:20.797Z,9.17
2022-11-02T21:06:51.831Z,8.63
2022-11-02T21:09:19.713Z,9.23
2022-11-02T21:12:05.478Z,9.17
2022-11-02T21:14:32.867Z,9.73
2022-11-02T21:17:00.019Z,9.70
2022-11-02T21:19:27.050Z,8.50
2022-11-02T21:21:59.380Z,9.73
2022-11-02T21:24:27.988Z,9.90
2022-11-02T21:26:55.019Z,10.17
2022-11-02T21:29:22.015Z,9.87
2022-11-02T21:31:51.445Z,10.60
2022-11-02T21:34:18.504Z,11.53
2022-11-02T21:36:47.130Z,10.23
2022-11-02T21:39:14.176Z,10.10
2022-11-02T21:41:41.263Z,8.90
2022-11-02T21:44:09.022Z,9.50
2022-11-02T21:46:36.097Z,10.40
2022-11-02T21:49:03.203Z,9.27
2022-11-02T21:51:30.468Z,9.70
2022-11-02T21:53:57.466Z,8.97
2022-11-02T21:56:26.881Z,8.47
2022-11-02T21:58:55.976Z,8.27
2022-11-02T22:01:56.612Z,10.80
2022-11-02T22:04:31.810Z,9.30
2022-11-02T22:07:00.919Z,9.90
2022-11-02T22:09:30.842Z,8.50
2022-11-02T22:12:16.604Z,9.10
2022-11-02T22:14:44.866Z,9.40
2022-11-02T22:17:21.794Z,9.07
2022-11-02T22:20:00.155Z,9.40
2022-11-02T22:22:27.730Z,8.03
2022-11-02T22:24:54.763Z,8.53
2022-11-02T22:27:21.757Z,7.60
2022-11-02T22:29:48.788Z,8.07
2022-11-02T22:32:16.060Z,9.00
2022-11-02T22:34:43.870Z,8.20
2022-11-02T22:37:29.178Z,9.10
2022-11-02T22:39:56.112Z,8.43
2022-11-02T22:42:23.156Z,7.40
2022-11-02T22:44:50.210Z,6.63
2022-11-02T22:47:17.248Z,7.80
2022-11-02T22:49:44.497Z,7.00
2022-11-02T22:52:11.488Z,7.60
2022-11-02T22:54:38.486Z,7.30
2022-11-02T22:57:06.445Z,7.93
2022-11-02T22:59:33.491Z,6.60
2022-11-02T23:02:00.517Z,8.50
2022-11-02T23:04:27.831Z,7.10
2022-11-02T23:06:54.856Z,6.50
2022-11-02T23:09:22.206Z,6.60
2022-11-02T23:11:49.306Z,6.33
2022-11-02T23:14:17.177Z,6.97
2022-11-02T23:16:49.559Z,5.80
2022-11-02T23:19:22.082Z,5.20
2022-11-02T23:22:25.190Z,6.07
2022-11-02T23:25:17.091Z,5.40
2022-11-02T23:28:14.801Z,4.87
2022-11-02T23:31:01.084Z,6.00
2022-11-02T23:33:33.963Z,5.93
2022-11-02T23:36:11.060Z,5.63
2022-11-02T23:39:05.011Z,5.10
2022-11-02T23:41:34.542Z,5.20
2022-11-02T23:44:14.538Z,4.57
2022-11-02T23:46:46.833Z,5.77
2022-11-02T23:49:16.521Z,5.00
2022-11-02T23:52:02.300Z,5.20
2022-11-02T23:54:48.115Z,5.23
2022-11-02T23:57:15.290Z,4.27
2022-11-02T23:59:42.240Z,3.60
